createdAt,value
2023-08-05T00:00:44.252Z,96178.16
2023-08-05T00:03:11.315Z,96179.44
2023-08-05T00:05:38.889Z,96179.16
2023-08-05T00:08:06.637Z,96164.47
2023-08-05T00:10:34.062Z,96162.56
2023-08-05T00:13:01.349Z,96180.66
2023-08-05T00:15:28.845Z,96178.22
2023-08-05T00:17:55.941Z,96186.53
2023-08-05T00:20:22.895Z,96186.41
2023-08-05T00:22:49.896Z,96184.56
2023-08-05T00:25:17.081Z,96186.88
2023-08-05T00:27:43.995Z,96187.06
2023-08-05T00:30:11.660Z,96181.16
2023-08-05T00:32:38.892Z,96194.81
2023-08-05T00:35:07.456Z,96192.88
2023-08-05T00:37:35.428Z,96183.34
2023-08-05T00:40:04.130Z,96184.88
2023-08-05T00:42:31.385Z,96182.78
2023-08-05T00:44:58.256Z,96182.34
2023-08-05T00:47:25.882Z,96187.78
2023-08-05T00:49:54.290Z,96193.66
2023-08-05T00:52:23.523Z,96187.78
2023-08-05T00:54:51.181Z,96186.13
2023-08-05T00:57:20.717Z,96181.75
2023-08-05T00:59:48.278Z,96179.13
2023-08-05T01:02:15.230Z,96174.81
2023-08-05T01:04:42.239Z,96175.19
2023-08-05T01:07:09.696Z,96168.47
2023-08-05T01:09:36.723Z,96162.41
2023-08-05T01:12:03.703Z,96166.38
2023-08-05T01:14:30.903Z,96151.91
2023-08-05T01:16:57.757Z,96153.06
2023-08-05T01:19:27.940Z,96154.09
2023-08-05T01:22:41.670Z,96153.25
2023-08-05T01:25:32.718Z,96146.84
2023-08-05T01:28:02.424Z,96145.16
2023-08-05T01:30:31.027Z,96134.94
2023-08-05T01:33:02.860Z,96141.06
2023-08-05T01:35:30.008Z,96139.75
2023-08-05T01:37:56.970Z,96126.16
2023-08-05T01:40:29.276Z,96122.44
2023-08-05T01:42:59.606Z,96124.53
2023-08-05T01:45:26.704Z,96111.94
2023-08-05T01:47:53.687Z,96108.31
2023-08-05T01:50:21.000Z,96106.13
2023-08-05T01:52:47.947Z,96110.78
2023-08-05T01:55:14.867Z,96097.28
2023-08-05T01:57:41.818Z,96096.13
2023-08-05T02:00:09.929Z,96091.88
2023-08-05T02:02:37.018Z,96098.22
2023-08-05T02:05:04.216Z,96090.38
2023-08-05T02:07:31.133Z,96090.78
2023-08-05T02:09:58.062Z,96098.56
2023-08-05T02:12:24.946Z,96097.00
2023-08-05T02:14:51.903Z,96097.47
2023-08-05T02:17:18.764Z,96095.75
2023-08-05T02:19:45.764Z,96085.41
2023-08-05T02:22:12.639Z,96075.47
2023-08-05T02:24:39.575Z,96073.34
2023-08-05T02:27:07.092Z,96070.41
2023-08-05T02:29:33.989Z,96079.09
2023-08-05T02:32:01.131Z,96081.78
2023-08-05T02:34:28.038Z,96090.91
2023-08-05T02:36:54.931Z,96104.63
2023-08-05T02:39:21.783Z,96113.53
2023-08-05T02:41:49.295Z,96118.63
2023-08-05T02:44:16.175Z,96116.66
2023-08-05T02:46:43.078Z,96115.34
2023-08-05T02:49:10.083Z,96124.38
2023-08-05T02:51:39.473Z,96123.56
2023-08-05T02:54:06.313Z,96142.09
2023-08-05T02:56:35.421Z,96140.63
2023-08-05T02:59:02.449Z,96150.19
2023-08-05T03:01:29.456Z,96149.88
2023-08-05T03:03:56.420Z,96148.09
2023-08-05T03:06:23.290Z,96149.53
2023-08-05T03:08:50.144Z,96139.88
2023-08-05T03:11:17.178Z,96137.91
2023-08-05T03:13:44.109Z,96141.03
2023-08-05T03:16:12.515Z,96143.53
2023-08-05T03:18:39.562Z,96138.28
2023-08-05T03:21:06.479Z,96144.88
2023-08-05T03:23:33.462Z,96156.88
2023-08-05T03:26:00.306Z,96148.41
2023-08-05T03:28:27.266Z,96151.13
2023-08-05T03:30:54.187Z,96161.69
2023-08-05T03:33:21.194Z,96166.09
2023-08-05T03:35:48.070Z,96177.97
2023-08-05T03:38:15.761Z,96172.34
2023-08-05T03:40:42.734Z,96173.16
2023-08-05T03:43:10.356Z,96175.53
2023-08-05T03:45:37.434Z,96166.47
2023-08-05T03:48:04.562Z,96164.38
2023-08-05T03:50:31.491Z,96149.25
2023-08-05T03:52:59.157Z,96150.84
2023-08-05T03:55:27.176Z,96151.63
2023-08-05T03:57:54.103Z,96160.44
2023-08-05T04:00:21.094Z,96163.72
2023-08-05T04:02:48.042Z,96158.72
2023-08-05T04:05:14.992Z,96164.69
2023-08-05T04:07:41.922Z,96163.69
2023-08-05T04:10:09.090Z,96160.63
2023-08-05T04:12:37.010Z,96167.56
2023-08-05T04:15:06.141Z,96167.16
2023-08-05T04:17:33.092Z,96175.06
2023-08-05T04:20:01.617Z,96179.97
2023-08-05T04:22:28.605Z,96175.19
2023-08-05T04:24:55.593Z,96166.16
2023-08-05T04:27:23.102Z,96171.94
2023-08-05T04:29:51.239Z,96171.47
2023-08-05T04:32:18.228Z,96174.00
2023-08-05T04:34:46.131Z,96174.97
2023-08-05T04:37:22.645Z,96178.59
2023-08-05T04:39:49.973Z,96165.81
2023-08-05T04:42:18.696Z,96160.97
2023-08-05T04:44:46.694Z,96164.53
2023-08-05T04:47:13.757Z,96163.78
2023-08-05T04:49:44.562Z,96165.31
2023-08-05T04:52:13.273Z,96161.78
2023-08-05T04:54:45.231Z,96155.19
2023-08-05T04:57:13.546Z,96154.78
2023-08-05T04:59:41.192Z,96157.34
2023-08-05T05:02:08.321Z,96145.44
2023-08-05T05:04:35.501Z,96142.78
2023-08-05T05:07:02.510Z,96148.75
2023-08-05T05:09:29.681Z,96133.78
2023-08-05T05:11:56.754Z,96141.97
2023-08-05T05:14:23.726Z,96138.75
2023-08-05T05:16:50.970Z,96145.72
2023-08-05T05:19:18.111Z,96148.28
2023-08-05T05:21:45.126Z,96140.69
2023-08-05T05:24:12.034Z,96144.81
2023-08-05T05:26:39.068Z,96135.53
2023-08-05T05:29:05.969Z,96143.59
2023-08-05T05:31:32.991Z,96149.72
2023-08-05T05:33:59.957Z,96153.94
2023-08-05T05:36:26.834Z,96153.81
2023-08-05T05:38:53.681Z,96156.59
2023-08-05T05:41:20.557Z,96157.75
2023-08-05T05:43:47.432Z,96163.59
2023-08-05T05:46:15.846Z,96155.22
2023-08-05T05:48:43.958Z,96155.16
2023-08-05T05:51:11.705Z,96168.00
2023-08-05T05:53:38.579Z,96155.91
2023-08-05T05:56:06.265Z,96159.56
2023-08-05T05:58:35.952Z,96164.69
2023-08-05T06:01:03.600Z,96165.50
2023-08-05T06:03:33.307Z,96172.81
2023-08-05T06:06:00.680Z,96180.03
2023-08-05T06:08:28.720Z,96190.13
2023-08-05T06:10:55.714Z,96189.38
2023-08-05T06:13:23.467Z,96188.28
2023-08-05T06:15:50.460Z,96183.28
2023-08-05T06:18:18.485Z,96181.84
2023-08-05T06:20:48.656Z,96181.03
2023-08-05T06:23:16.424Z,96172.53
2023-08-05T06:25:43.599Z,96177.25
2023-08-05T06:28:10.554Z,96176.38
2023-08-05T06:30:43.213Z,96167.69
2023-08-05T06:33:10.143Z,96183.50
2023-08-05T06:35:37.078Z,96180.94
2023-08-05T06:38:04.124Z,96178.38
2023-08-05T06:40:31.077Z,96178.94
2023-08-05T06:42:58.005Z,96180.13
2023-08-05T06:45:25.037Z,96177.31
2023-08-05T06:47:51.944Z,96180.84
2023-08-05T06:50:18.896Z,96185.28
2023-08-05T06:52:45.844Z,96193.44
2023-08-05T06:55:13.255Z,96189.69
2023-08-05T06:57:40.235Z,96191.91
2023-08-05T07:00:07.956Z,96191.22
2023-08-05T07:02:34.808Z,96183.88
2023-08-05T07:05:01.821Z,96195.31
2023-08-05T07:07:28.664Z,96191.91
2023-08-05T07:10:02.275Z,96201.44
2023-08-05T07:12:29.363Z,96198.94
2023-08-05T07:14:56.372Z,96200.09
2023-08-05T07:17:23.714Z,96197.44
2023-08-05T07:19:50.601Z,96201.88
2023-08-05T07:22:17.568Z,96204.38
2023-08-05T07:24:44.556Z,96207.78
2023-08-05T07:27:11.528Z,96214.88
2023-08-05T07:29:39.247Z,96214.44
2023-08-05T07:32:07.251Z,96208.56
2023-08-05T07:34:34.157Z,96206.47
2023-08-05T07:37:01.069Z,96204.50
2023-08-05T07:39:34.610Z,96204.06
2023-08-05T07:42:06.853Z,96209.03
2023-08-05T07:44:33.917Z,96202.03
2023-08-05T07:47:01.156Z,96193.41
2023-08-05T07:49:28.341Z,96193.47
2023-08-05T07:51:55.345Z,96191.91
2023-08-05T07:54:24.856Z,96186.09
2023-08-05T07:56:53.421Z,96185.47
2023-08-05T07:59:21.427Z,96192.31
2023-08-05T08:01:48.405Z,96195.38
2023-08-05T08:04:16.188Z,96198.94
2023-08-05T08:06:46.584Z,96204.19
2023-08-05T08:09:14.339Z,96206.25
2023-08-05T08:11:41.836Z,96203.38
2023-08-05T08:14:08.861Z,96204.25
2023-08-05T08:16:35.749Z,96206.94
2023-08-05T08:19:05.555Z,96201.88
2023-08-05T08:21:32.564Z,96206.72
2023-08-05T08:23:59.483Z,96203.06
2023-08-05T08:26:26.510Z,96206.31
2023-08-05T08:28:53.372Z,96201.44
2023-08-05T08:31:20.314Z,96202.59
2023-08-05T08:33:47.267Z,96201.56
2023-08-05T08:36:14.114Z,96201.63
2023-08-05T08:38:40.978Z,96196.88
2023-08-05T08:41:07.878Z,96198.13
2023-08-05T08:43:35.551Z,96203.03
2023-08-05T08:46:06.492Z,96205.75
2023-08-05T08:48:39.251Z,96196.09
2023-08-05T08:51:08.426Z,96202.66
2023-08-05T08:53:35.595Z,96191.91
2023-08-05T08:56:03.124Z,96207.19
2023-08-05T08:58:30.041Z,96210.75
2023-08-05T09:00:59.649Z,96204.19
2023-08-05T09:03:29.503Z,96200.81
2023-08-05T09:05:57.726Z,96210.38
2023-08-05T09:08:24.843Z,96203.31
2023-08-05T09:10:51.998Z,96205.47
2023-08-05T09:13:20.798Z,96205.44
2023-08-05T09:15:48.958Z,96204.13
2023-08-05T09:18:16.003Z,96196.44
2023-08-05T09:20:43.153Z,96189.47
2023-08-05T09:23:11.787Z,96192.00
2023-08-05T09:25:48.021Z,96195.72
2023-08-05T09:28:15.331Z,96198.44
2023-08-05T09:30:42.306Z,96196.88
2023-08-05T09:33:09.365Z,96194.81
2023-08-05T09:35:36.334Z,96182.66
2023-08-05T09:38:04.307Z,96182.50
2023-08-05T09:40:34.966Z,96169.72
2023-08-05T09:43:04.121Z,96172.72
2023-08-05T09:45:34.658Z,96176.28
2023-08-05T09:48:10.995Z,96181.91
2023-08-05T09:50:39.611Z,96176.06
2023-08-05T09:53:09.698Z,96169.63
2023-08-05T09:55:40.138Z,96165.56
2023-08-05T09:58:10.471Z,96168.09
2023-08-05T10:00:41.985Z,96168.53
2023-08-05T10:03:14.980Z,96169.38
2023-08-05T10:05:46.567Z,96158.03
2023-08-05T10:08:21.104Z,96163.63
2023-08-05T10:10:49.053Z,96168.81
2023-08-05T10:13:19.284Z,96163.88
2023-08-05T10:15:51.536Z,96174.31
2023-08-05T10:18:20.083Z,96170.97
2023-08-05T10:20:52.578Z,96175.22
2023-08-05T10:23:19.849Z,96173.63
2023-08-05T10:25:49.538Z,96173.88
2023-08-05T10:28:25.386Z,96163.31
2023-08-05T10:30:54.953Z,96162.91
2023-08-05T10:33:22.514Z,96153.22
2023-08-05T10:35:50.811Z,96148.63
2023-08-05T10:38:23.878Z,96150.78
2023-08-05T10:41:01.608Z,96147.03
2023-08-05T10:43:32.111Z,96137.47
2023-08-05T10:46:00.474Z,96146.91
2023-08-05T10:48:36.605Z,96139.09
2023-08-05T10:51:25.856Z,96129.53
2023-08-05T10:53:52.738Z,96121.28
2023-08-05T10:56:20.230Z,96123.59
2023-08-05T10:58:52.858Z,96112.84
2023-08-05T11:01:19.939Z,96117.06
2023-08-05T11:03:53.185Z,96111.94
2023-08-05T11:06:25.516Z,96103.31
2023-08-05T11:08:52.897Z,96102.34
2023-08-05T11:11:20.776Z,96105.63
2023-08-05T11:13:49.461Z,96096.69
2023-08-05T11:16:18.168Z,96095.19
2023-08-05T11:18:48.703Z,96093.66
2023-08-05T11:21:16.356Z,96085.88
2023-08-05T11:23:44.624Z,96064.03
2023-08-05T11:26:11.785Z,96069.34
2023-08-05T11:28:48.412Z,96064.72
2023-08-05T11:31:28.094Z,96062.13
2023-08-05T11:33:56.073Z,96057.75
2023-08-05T11:36:30.321Z,96060.28
2023-08-05T11:39:01.810Z,96063.06
2023-08-05T11:41:29.847Z,96056.53
2023-08-05T11:43:57.011Z,96060.19
2023-08-05T11:46:29.997Z,96062.91
2023-08-05T11:49:12.260Z,96064.78
2023-08-05T11:51:54.132Z,96053.94
2023-08-05T11:54:39.661Z,96053.47
2023-08-05T11:57:20.137Z,96047.59
2023-08-05T11:59:49.752Z,96052.72
2023-08-05T12:02:19.844Z,96046.69
2023-08-05T12:05:01.650Z,96044.72
2023-08-05T12:07:30.669Z,96046.34
2023-08-05T12:10:13.329Z,96048.13
2023-08-05T12:12:49.132Z,96040.75
2023-08-05T12:15:29.905Z,96038.50
2023-08-05T12:18:07.204Z,96034.47
2023-08-05T12:20:36.684Z,96029.56
2023-08-05T12:23:04.488Z,96023.19
2023-08-05T12:25:33.140Z,96025.81
2023-08-05T12:28:02.908Z,96022.34
2023-08-05T12:30:33.151Z,96034.59
2023-08-05T12:33:00.270Z,96023.75
2023-08-05T12:35:27.611Z,96019.53
2023-08-05T12:37:54.561Z,96019.13
2023-08-05T12:40:21.560Z,96015.34
2023-08-05T12:42:48.497Z,96013.72
2023-08-05T12:45:15.388Z,96006.66
2023-08-05T12:47:42.368Z,96012.41
2023-08-05T12:50:10.319Z,96012.09
2023-08-05T12:52:37.286Z,96007.59
2023-08-05T12:55:04.684Z,96014.25
2023-08-05T12:57:33.406Z,96018.59
2023-08-05T13:00:01.146Z,96023.38
2023-08-05T13:02:28.933Z,96022.94
2023-08-05T13:04:57.044Z,96031.00
2023-08-05T13:07:24.253Z,96038.91
2023-08-05T13:09:51.460Z,96028.56
2023-08-05T13:12:18.342Z,96034.75
2023-08-05T13:14:45.306Z,96030.34
2023-08-05T13:17:13.781Z,96037.88
2023-08-05T13:19:40.790Z,96032.81
2023-08-05T13:22:07.729Z,96036.56
2023-08-05T13:24:35.528Z,96032.81
2023-08-05T13:27:06.103Z,96039.34
2023-08-05T13:29:33.138Z,96031.31
2023-08-05T13:32:00.189Z,96023.72
2023-08-05T13:34:27.111Z,96025.34
2023-08-05T13:36:54.006Z,96026.94
2023-08-05T13:39:21.043Z,96022.81
2023-08-05T13:41:48.004Z,96018.13
2023-08-05T13:44:14.905Z,96021.41
2023-08-05T13:46:41.894Z,96017.44
2023-08-05T13:49:09.162Z,96020.47
2023-08-05T13:51:36.083Z,96014.34
2023-08-05T13:54:03.670Z,96003.91
2023-08-05T13:56:30.615Z,95999.16
2023-08-05T13:58:58.465Z,95993.28
2023-08-05T14:01:25.612Z,96017.03
2023-08-05T14:03:52.604Z,96032.81
2023-08-05T14:06:19.479Z,96042.16
2023-08-05T14:08:47.889Z,96046.69
2023-08-05T14:11:16.949Z,96046.69
2023-08-05T14:13:43.810Z,96045.84
2023-08-05T14:16:10.722Z,96046.97
2023-08-05T14:18:37.640Z,96041.25
2023-08-05T14:21:05.272Z,96041.72
2023-08-05T14:23:32.226Z,96051.81
2023-08-05T14:25:59.129Z,96042.66
2023-08-05T14:28:26.734Z,96056.53
2023-08-05T14:30:53.666Z,96055.03
2023-08-05T14:33:20.631Z,96049.47
2023-08-05T14:35:47.584Z,96048.56
2023-08-05T14:38:14.457Z,96041.84
2023-08-05T14:40:41.350Z,96043.06
2023-08-05T14:43:08.231Z,96036.34
2023-08-05T14:45:39.862Z,96035.88
2023-08-05T14:48:07.401Z,96032.25
2023-08-05T14:50:40.705Z,96029.03
2023-08-05T14:53:07.693Z,96033.03
2023-08-05T14:55:34.635Z,96028.47
2023-08-05T14:58:01.607Z,96030.97
2023-08-05T15:00:28.586Z,96024.91
2023-08-05T15:02:55.788Z,96017.25
2023-08-05T15:05:23.234Z,96022.59
2023-08-05T15:07:50.274Z,96022.03
2023-08-05T15:10:17.406Z,96010.88
2023-08-05T15:12:44.346Z,96020.50
2023-08-05T15:15:11.562Z,96017.81
2023-08-05T15:17:42.105Z,96022.63
2023-08-05T15:20:11.927Z,96014.66
2023-08-05T15:22:39.071Z,96011.94
2023-08-05T15:25:06.513Z,96013.00
2023-08-05T15:27:33.984Z,96015.44
2023-08-05T15:30:00.973Z,96009.84
2023-08-05T15:32:27.963Z,96018.38
2023-08-05T15:34:55.008Z,96010.38
2023-08-05T15:37:21.870Z,96006.88
2023-08-05T15:39:48.830Z,96002.63
2023-08-05T15:42:15.816Z,95995.66
2023-08-05T15:44:42.752Z,95994.88
2023-08-05T15:47:09.717Z,95993.28
2023-08-05T15:49:36.584Z,95994.88
2023-08-05T15:52:04.263Z,95995.97
2023-08-05T15:54:31.094Z,95989.53
2023-08-05T15:56:58.014Z,95979.13
2023-08-05T15:59:24.865Z,95974.56
2023-08-05T16:01:52.001Z,95970.56
2023-08-05T16:04:19.096Z,95971.41
2023-08-05T16:06:45.992Z,95971.91
2023-08-05T16:09:12.924Z,95977.25
2023-08-05T16:11:39.957Z,95979.38
2023-08-05T16:14:06.848Z,95968.66
2023-08-05T16:16:33.979Z,95973.41
2023-08-05T16:19:01.841Z,95981.53
2023-08-05T16:21:29.362Z,95984.72
2023-08-05T16:23:57.906Z,95986.31
2023-08-05T16:26:26.316Z,95978.34
2023-08-05T16:28:54.177Z,95973.28
2023-08-05T16:31:23.627Z,95977.78
2023-08-05T16:33:51.001Z,95977.28
2023-08-05T16:36:17.861Z,95982.59
2023-08-05T16:38:45.483Z,95981.75
2023-08-05T16:41:12.736Z,95975.09
2023-08-05T16:43:40.079Z,95986.28
2023-08-05T16:46:08.511Z,95980.38
2023-08-05T16:48:36.070Z,95986.22
2023-08-05T16:51:04.312Z,95978.75
2023-08-05T16:53:33.713Z,95979.56
2023-08-05T16:56:02.698Z,95963.25
2023-08-05T16:58:29.848Z,95946.50
2023-08-05T17:00:58.153Z,95951.56
2023-08-05T17:03:25.332Z,95948.91
2023-08-05T17:05:53.451Z,95932.13
2023-08-05T17:08:21.567Z,95932.91
2023-08-05T17:10:48.567Z,95931.31
2023-08-05T17:13:15.660Z,95944.88
2023-08-05T17:15:44.572Z,95946.19
2023-08-05T17:18:13.654Z,95940.78
2023-08-05T17:20:41.881Z,95939.75
2023-08-05T17:23:09.669Z,95932.31
2023-08-05T17:25:42.929Z,95936.03
2023-08-05T17:28:09.945Z,95932.31
2023-08-05T17:30:37.301Z,95947.25
2023-08-05T17:33:04.726Z,95939.81
2023-08-05T17:35:33.395Z,95942.47
2023-08-05T17:38:00.407Z,95931.00
2023-08-05T17:40:30.430Z,95932.88
2023-08-05T17:42:57.430Z,95926.50
2023-08-05T17:45:24.382Z,95927.56
2023-08-05T17:47:51.421Z,95921.19
2023-08-05T17:50:18.383Z,95923.81
2023-08-05T17:52:45.289Z,95919.53
2023-08-05T17:55:12.281Z,95937.44
2023-08-05T17:57:39.162Z,95934.22
2023-08-05T18:00:07.238Z,95932.31
2023-08-05T18:02:34.268Z,95941.13
2023-08-05T18:05:01.229Z,95939.25
2023-08-05T18:07:28.155Z,95936.09
2023-08-05T18:09:55.072Z,95942.47
2023-08-05T18:12:21.958Z,95943.78
2023-08-05T18:14:48.803Z,95945.69
2023-08-05T18:17:16.136Z,95950.44
2023-08-05T18:19:43.256Z,95945.09
2023-08-05T18:22:10.463Z,95949.28
2023-08-05T18:24:37.446Z,95951.44
2023-08-05T18:27:04.772Z,95950.41
2023-08-05T18:29:31.683Z,95946.09
2023-08-05T18:31:59.071Z,95955.16
2023-08-05T18:34:26.118Z,95947.19
2023-08-05T18:36:53.555Z,95942.66
2023-08-05T18:39:20.463Z,95943.31
2023-08-05T18:41:48.961Z,95937.34
2023-08-05T18:44:16.344Z,95939.78
2023-08-05T18:46:43.381Z,95937.56
2023-08-05T18:49:10.352Z,95941.06
2023-08-05T18:51:37.269Z,95933.38
2023-08-05T18:54:04.430Z,95939.00
2023-08-05T18:56:31.443Z,95930.50
2023-08-05T18:58:58.390Z,95935.28
2023-08-05T19:01:25.369Z,95932.66
2023-08-05T19:03:52.382Z,95937.44
2023-08-05T19:06:19.449Z,95926.78
2023-08-05T19:08:46.314Z,95917.78
2023-08-05T19:11:17.131Z,95916.91
2023-08-05T19:13:44.198Z,95925.16
2023-08-05T19:16:11.177Z,95929.41
2023-08-05T19:18:38.154Z,95927.03
2023-08-05T19:21:06.641Z,95926.75
2023-08-05T19:23:34.825Z,95920.59
2023-08-05T19:26:02.338Z,95921.38
2023-08-05T19:28:30.664Z,95928.06
2023-08-05T19:30:58.117Z,95924.69
2023-08-05T19:33:25.069Z,95925.28
2023-08-05T19:35:51.957Z,95929.28
2023-08-05T19:38:18.900Z,95925.03
2023-08-05T19:40:45.812Z,95932.44
2023-08-05T19:43:12.797Z,95928.19
2023-08-05T19:45:39.659Z,95926.50
2023-08-05T19:48:06.664Z,95919.41
2023-08-05T19:50:33.648Z,95914.81
2023-08-05T19:53:00.508Z,95917.19
2023-08-05T19:55:33.204Z,95922.81
2023-08-05T19:58:00.305Z,95914.81
2023-08-05T20:00:27.690Z,95916.44
2023-08-05T20:02:54.730Z,95909.47
2023-08-05T20:05:21.774Z,95915.06
2023-08-05T20:07:48.626Z,95911.69
2023-08-05T20:10:15.534Z,95899.44
2023-08-05T20:12:42.432Z,95898.28
2023-08-05T20:15:09.845Z,95898.88
2023-08-05T20:17:36.790Z,95904.38
2023-08-05T20:20:03.993Z,95900.34
2023-08-05T20:22:30.889Z,95887.16
2023-08-05T20:24:58.415Z,95896.78
2023-08-05T20:27:25.301Z,95882.91
2023-08-05T20:29:52.294Z,95880.09
2023-08-05T20:32:19.246Z,95872.81
2023-08-05T20:34:49.722Z,95877.47
2023-08-05T20:37:17.252Z,95878.22
2023-08-05T20:39:44.206Z,95884.25
2023-08-05T20:42:11.138Z,95883.75
2023-08-05T20:44:38.052Z,95885.38
2023-08-05T20:47:05.434Z,95878.78
2023-08-05T20:49:32.322Z,95889.25
2023-08-05T20:51:59.409Z,95888.09
2023-08-05T20:54:26.282Z,95894.53
2023-08-05T20:56:53.143Z,95890.16
2023-08-05T20:59:20.049Z,95881.19
2023-08-05T21:01:48.504Z,95882.56
2023-08-05T21:04:16.566Z,95875.41
2023-08-05T21:06:44.189Z,95881.72
2023-08-05T21:09:12.278Z,95888.03
2023-08-05T21:11:39.597Z,95880.44
2023-08-05T21:14:07.098Z,95877.22
2023-08-05T21:16:34.038Z,95876.44
2023-08-05T21:19:00.998Z,95882.28
2023-08-05T21:21:27.943Z,95881.00
2023-08-05T21:23:54.900Z,95873.56
2023-08-05T21:26:21.913Z,95880.38
2023-08-05T21:28:48.988Z,95880.69
2023-08-05T21:31:17.158Z,95881.75
2023-08-05T21:33:44.321Z,95871.09
2023-08-05T21:36:11.554Z,95874.81
2023-08-05T21:38:38.505Z,95883.09
2023-08-05T21:41:05.558Z,95888.13
2023-08-05T21:43:32.537Z,95884.97
2023-08-05T21:46:00.381Z,95882.84
2023-08-05T21:48:27.476Z,95880.16
2023-08-05T21:50:54.401Z,95883.00
2023-08-05T21:53:21.803Z,95880.59
2023-08-05T21:55:49.366Z,95883.22
2023-08-05T21:58:16.856Z,95879.28
2023-08-05T22:00:50.503Z,95878.25
2023-08-05T22:03:17.513Z,95874.81
2023-08-05T22:05:44.414Z,95877.47
2023-08-05T22:08:11.299Z,95875.28
2023-08-05T22:10:41.227Z,95875.81
2023-08-05T22:13:08.097Z,95882.16
2023-08-05T22:15:35.037Z,95877.81
2023-08-05T22:18:01.969Z,95872.59
2023-08-05T22:20:28.878Z,95873.38
2023-08-05T22:22:55.821Z,95869.50
2023-08-05T22:25:22.971Z,95855.44
2023-08-05T22:27:49.843Z,95855.44
2023-08-05T22:30:16.818Z,95853.31
2023-08-05T22:32:43.737Z,95852.88
2023-08-05T22:35:10.657Z,95853.94
2023-08-05T22:37:37.576Z,95850.25
2023-08-05T22:40:05.006Z,95848.66
2023-08-05T22:42:32.363Z,95843.88
2023-08-05T22:44:59.214Z,95844.66
2023-08-05T22:47:26.116Z,95851.22
2023-08-05T22:49:53.026Z,95839.28
2023-08-05T22:52:20.003Z,95830.56
2023-08-05T22:54:46.845Z,95836.50
2023-08-05T22:57:13.725Z,95832.00
2023-08-05T22:59:40.640Z,95824.03
2023-08-05T23:02:07.830Z,95820.31
2023-08-05T23:04:34.819Z,95824.03
2023-08-05T23:07:01.741Z,95815.00
2023-08-05T23:09:28.605Z,95814.84
2023-08-05T23:11:55.880Z,95811.59
2023-08-05T23:14:22.911Z,95806.84
2023-08-05T23:16:49.789Z,95801.44
2023-08-05T23:19:16.681Z,95798.34
2023-08-05T23:21:44.073Z,95798.44
2023-08-05T23:24:11.815Z,95803.25
2023-08-05T23:26:39.377Z,95796.88
2023-08-05T23:29:06.678Z,95799.56
2023-08-05T23:31:33.818Z,95797.44
2023-08-05T23:34:00.867Z,95796.88
2023-08-05T23:36:28.458Z,95794.75
2023-08-05T23:38:55.488Z,95790.47
2023-08-05T23:41:22.551Z,95792.06
2023-08-05T23:43:49.479Z,95785.88
2023-08-05T23:46:16.569Z,95792.53
2023-08-05T23:48:43.624Z,95788.53
2023-08-05T23:51:10.481Z,95786.22
2023-08-05T23:53:37.357Z,95790.00
2023-08-05T23:56:04.408Z,95785.19
2023-08-05T23:58:31.233Z,95787.38
